Time;durP1;ratioP1;P1;durP2;ratioP2;P2;SDS_P1;SDS_P2;PMS_P1;PMS_P2;Temp;Humidity;BMP_temperature;BMP_pressure;BME280_temperature;BME280_humidity;BME280_pressure;Samples;Min_cycle;Max_cycle;Signal;HPM_P1;HPM_P2
2023/11/16 00:00:56;;;;;;;;;;;;;;;19.62;64.56;100554.69;7398258;19;1357;-54
2023/11/16 00:03:24;;;;;;;;;;;;;;;19.60;64.72;100566.56;7399391;19;1215;-53
2023/11/16 00:05:55;;;;;;;;;;;;;;;19.56;65.18;100562.47;7398210;19;1533;-54
2023/11/16 00:08:24;;;;;;;;;;;;;;;19.55;65.14;100572.34;7398228;19;1502;-53
2023/11/16 00:10:54;;;;;;;;;;;;;;;19.58;65.45;100580.09;7395910;19;1500;-54
2023/11/16 00:13:24;;;;;;;;;;;;;;;19.53;65.29;100576.16;7398378;19;1565;-54
2023/11/16 00:15:52;;;;;;;;;;;;;;;19.53;65.02;100587.72;7398751;19;1447;-54
2023/11/16 00:18:21;;;;;;;;;;;;;;;19.51;65.20;100578.13;7397220;19;1463;-52
2023/11/16 00:20:49;;;;;;;;;;;;;;;19.52;65.17;100590.53;7394460;19;1859;-54
2023/11/16 00:23:20;;;;;;;;;;;;;;;19.48;65.09;100588.16;7381913;19;1407;-53
2023/11/16 00:25:48;;;;;;;;;;;;;;;19.50;65.15;100601.44;7394598;19;1789;-54
2023/11/16 00:28:18;;;;;;;;;;;;;;;19.51;65.09;100603.13;7396345;19;1396;-57
2023/11/16 00:30:47;;;;;;;;;;;;;;;19.50;65.06;100606.81;7397003;19;1916;-53
2023/11/16 00:33:15;;;;;;;;;;;;;;;19.53;65.05;100603.81;7397911;19;1506;-52
2023/11/16 00:35:43;;;;;;;;;;;;;;;19.50;65.20;100609.50;7397233;19;1491;-52
2023/11/16 00:38:13;;;;;;;;;;;;;;;19.51;64.99;100613.00;7396357;19;1522;-54
2023/11/16 00:40:44;;;;;;;;;;;;;;;19.51;65.28;100618.38;7394624;19;1855;-54
2023/11/16 00:43:13;;;;;;;;;;;;;;;19.51;65.25;100613.00;7395645;19;1387;-54
2023/11/16 00:45:41;;;;;;;;;;;;;;;19.49;65.14;100629.22;7396629;19;1592;-54
2023/11/16 00:48:10;;;;;;;;;;;;;;;19.53;65.18;100630.63;7393884;19;1591;-54
2023/11/16 00:50:38;;;;;;;;;;;;;;;19.52;64.93;100623.59;7393951;19;1986;-54
2023/11/16 00:53:06;;;;;;;;;;;;;;;19.55;65.06;100631.34;7397162;19;1144;-53
2023/11/16 00:55:34;;;;;;;;;;;;;;;19.49;65.25;100639.97;7393614;19;1499;-54
2023/11/16 00:58:08;;;;;;;;;;;;;;;19.49;65.07;100631.91;7395914;19;1328;-53
2023/11/16 01:00:36;;;;;;;;;;;;;;;19.46;64.91;100657.19;7393326;19;1881;-52
2023/11/16 01:03:06;;;;;;;;;;;;;;;19.46;64.92;100627.69;7397003;19;1187;-53
2023/11/16 01:05:35;;;;;;;;;;;;;;;19.47;64.97;100621.31;7395260;19;1545;-54
2023/11/16 01:08:04;;;;;;;;;;;;;;;19.50;64.96;100643.47;7396007;19;1523;-53
2023/11/16 01:10:33;;;;;;;;;;;;;;;19.46;64.97;100633.06;7395685;19;1558;-54
2023/11/16 01:13:07;;;;;;;;;;;;;;;19.44;65.04;100632.34;7396035;19;1228;-54
2023/11/16 01:15:38;;;;;;;;;;;;;;;19.45;64.99;100625.97;7395717;19;1875;-53
2023/11/16 01:18:07;;;;;;;;;;;;;;;19.46;65.03;100635.75;7395882;19;1522;-54
2023/11/16 01:20:35;;;;;;;;;;;;;;;19.42;65.20;100637.00;7394733;19;1873;-54
2023/11/16 01:23:11;;;;;;;;;;;;;;;19.44;65.07;100640.41;7381729;19;1408;-54
2023/11/16 01:25:40;;;;;;;;;;;;;;;19.46;65.32;100662.56;7393828;19;1520;-54
2023/11/16 01:28:10;;;;;;;;;;;;;;;19.40;65.19;100636.31;7393906;19;1486;-53
2023/11/16 01:30:41;;;;;;;;;;;;;;;19.42;65.23;100631.66;7395645;19;1689;-53
2023/11/16 01:33:11;;;;;;;;;;;;;;;19.44;65.27;100631.50;7396738;19;1167;-54
2023/11/16 01:35:41;;;;;;;;;;;;;;;19.00;65.09;100547.97;7395982;19;1487;-53
2023/11/16 01:38:09;;;;;;;;;;;;;;;19.41;65.29;100627.25;7394525;19;1578;-54
2023/11/16 01:40:40;;;;;;;;;;;;;;;19.42;65.30;100625.44;7393036;19;1854;-53
2023/11/16 01:43:09;;;;;;;;;;;;;;;19.42;65.52;100623.59;7394082;19;1491;-54
2023/11/16 01:45:37;;;;;;;;;;;;;;;19.41;65.23;100646.03;7394655;19;1515;-55
2023/11/16 01:48:09;;;;;;;;;;;;;;;19.41;65.41;100658.59;7393718;19;1622;-54
2023/11/16 01:50:38;;;;;;;;;;;;;;;19.39;65.32;100636.44;7394617;19;1415;-52
2023/11/16 01:53:10;;;;;;;;;;;;;;;19.35;65.43;100646.59;7395617;19;1435;-53
2023/11/16 01:55:40;;;;;;;;;;;;;;;19.39;65.38;100656.03;7394118;19;1452;-54
2023/11/16 01:58:09;;;;;;;;;;;;;;;19.38;65.29;100654.38;7391771;19;1523;-52
2023/11/16 02:00:42;;;;;;;;;;;;;;;19.37;65.51;100641.94;7392710;19;1861;-53
2023/11/16 02:03:13;;;;;;;;;;;;;;;19.35;65.32;100643.91;7394007;19;1437;-53
2023/11/16 02:05:42;;;;;;;;;;;;;;;19.35;65.12;100627.81;7394276;19;1551;-54
2023/11/16 02:08:11;;;;;;;;;;;;;;;19.35;65.24;100667.22;7393642;19;1539;-54
2023/11/16 02:10:40;;;;;;;;;;;;;;;19.36;65.14;100658.16;7393653;19;1550;-52
2023/11/16 02:13:17;;;;;;;;;;;;;;;19.35;65.38;100633.19;7393291;19;1495;-52
2023/11/16 02:15:46;;;;;;;;;;;;;;;19.39;65.32;100647.16;7393561;19;1619;-53
2023/11/16 02:18:17;;;;;;;;;;;;;;;19.34;65.28;100644.91;7393356;19;1510;-54
2023/11/16 02:20:46;;;;;;;;;;;;;;;19.38;65.05;100659.72;7392988;19;1893;-54
2023/11/16 02:23:17;;;;;;;;;;;;;;;19.58;65.08;100657.06;7379131;19;1732;-53
2023/11/16 02:25:46;;;;;;;;;;;;;;;20.17;63.45;100664.03;7394174;19;1408;-54
2023/11/16 02:28:15;;;;;;;;;;;;;;;20.80;61.91;100657.16;7391804;19;1566;-54
2023/11/16 02:30:43;;;;;;;;;;;;;;;21.50;60.07;100659.25;7394062;19;1381;-53
2023/11/16 02:33:12;;;;;;;;;;;;;;;21.81;59.04;100657.84;7394460;19;1427;-53
2023/11/16 02:35:41;;;;;;;;;;;;;;;21.82;59.20;100661.38;7393012;19;1491;-55
2023/11/16 02:38:12;;;;;;;;;;;;;;;22.08;58.74;100658.69;7392489;19;1507;-53
2023/11/16 02:40:43;;;;;;;;;;;;;;;22.04;58.85;100666.25;7391567;19;1858;-53
2023/11/16 02:43:11;;;;;;;;;;;;;;;21.97;58.86;100677.81;7392321;19;1557;-53
2023/11/16 02:45:41;;;;;;;;;;;;;;;22.02;58.90;100686.25;7392696;19;1555;-54
2023/11/16 02:48:09;;;;;;;;;;;;;;;22.00;58.70;100696.34;7393323;19;1593;-54
2023/11/16 02:50:37;;;;;;;;;;;;;;;22.03;58.68;100688.78;7392984;19;1551;-53
2023/11/16 02:53:06;;;;;;;;;;;;;;;22.05;58.58;100688.66;7392422;19;1561;-54
2023/11/16 02:55:35;;;;;;;;;;;;;;;22.09;58.72;100692.72;7393062;19;1453;-53
2023/11/16 02:58:06;;;;;;;;;;;;;;;22.10;58.71;100694.38;7393724;19;1598;-53
2023/11/16 03:00:34;;;;;;;;;;;;;;;22.15;58.39;100697.47;7390562;19;1882;-53
2023/11/16 03:03:03;;;;;;;;;;;;;;;22.14;58.61;100698.44;7393072;19;1557;-54
2023/11/16 03:05:32;;;;;;;;;;;;;;;22.17;58.38;100700.00;7391635;19;1492;-54
2023/11/16 03:08:01;;;;;;;;;;;;;;;22.19;58.55;100698.00;7392978;19;1538;-54
2023/11/16 03:10:29;;;;;;;;;;;;;;;22.23;58.31;100697.50;7392510;19;1075;-53
2023/11/16 03:12:57;;;;;;;;;;;;;;;22.25;58.31;100700.09;7392666;19;1387;-54
2023/11/16 03:15:28;;;;;;;;;;;;;;;22.32;57.92;100697.59;7391443;19;1577;-54
2023/11/16 03:17:58;;;;;;;;;;;;;;;22.36;58.07;100710.59;7392102;19;1613;-55
2023/11/16 03:20:27;;;;;;;;;;;;;;;22.34;58.05;100700.97;7391162;19;1865;-53
2023/11/16 03:22:56;;;;;;;;;;;;;;;22.40;57.86;100716.50;7392019;19;1304;-54
2023/11/16 03:25:26;;;;;;;;;;;;;;;22.47;57.61;100711.34;7376354;19;1476;-54
2023/11/16 03:27:55;;;;;;;;;;;;;;;22.48;57.51;100715.69;7392819;19;1502;-54
2023/11/16 03:30:24;;;;;;;;;;;;;;;22.52;57.46;100699.06;7391195;19;1509;-55
2023/11/16 03:32:55;;;;;;;;;;;;;;;22.51;57.52;100729.72;7391345;19;1558;-52
2023/11/16 03:35:24;;;;;;;;;;;;;;;22.51;57.42;100723.47;7391822;19;1546;-54
2023/11/16 03:37:53;;;;;;;;;;;;;;;22.52;57.61;100736.81;7391476;19;1462;-54
2023/11/16 03:40:21;;;;;;;;;;;;;;;22.54;57.35;100732.09;7389932;19;1859;-54
2023/11/16 03:42:49;;;;;;;;;;;;;;;22.72;57.09;100747.34;7389628;19;1494;-55
2023/11/16 03:45:19;;;;;;;;;;;;;;;22.64;57.32;100735.53;7390605;19;1552;-54
2023/11/16 03:47:48;;;;;;;;;;;;;;;22.59;57.39;100745.91;7389270;19;1515;-54
2023/11/16 03:50:19;;;;;;;;;;;;;;;22.60;57.19;100753.00;7390013;19;1526;-55
2023/11/16 03:52:47;;;;;;;;;;;;;;;22.66;57.38;100774.94;7390135;19;1400;-52
2023/11/16 03:55:16;;;;;;;;;;;;;;;22.65;57.14;100784.88;7391335;19;1574;-54
2023/11/16 03:57:44;;;;;;;;;;;;;;;22.06;58.41;100787.25;7390141;19;1178;-54
2023/11/16 04:00:13;;;;;;;;;;;;;;;21.57;59.79;100794.88;7388942;19;1898;-54
2023/11/16 04:02:42;;;;;;;;;;;;;;;21.31;60.23;100782.13;7389742;19;1550;-54
2023/11/16 04:05:10;;;;;;;;;;;;;;;21.12;60.68;100801.03;7390183;19;1495;-54
2023/11/16 04:07:41;;;;;;;;;;;;;;;21.03;60.80;100787.50;7389414;19;1452;-53
2023/11/16 04:10:10;;;;;;;;;;;;;;;20.88;60.84;100790.81;7389977;19;1198;-54
2023/11/16 04:12:40;;;;;;;;;;;;;;;20.83;61.00;100792.09;7389380;19;1428;-53
2023/11/16 04:15:09;;;;;;;;;;;;;;;20.81;61.04;100798.59;7391378;19;1077;-54
2023/11/16 04:17:39;;;;;;;;;;;;;;;20.75;61.01;100791.13;7390852;19;1945;-54
2023/11/16 04:20:09;;;;;;;;;;;;;;;20.76;61.20;100809.78;7385040;19;1849;-54
2023/11/16 04:22:39;;;;;;;;;;;;;;;20.74;61.26;100816.31;7393153;19;1479;-54
2023/11/16 04:25:18;;;;;;;;;;;;;;;20.55;61.05;100815.34;7381434;19;1389;-53
2023/11/16 04:27:48;;;;;;;;;;;;;;;20.52;61.84;100829.06;7396845;19;1478;-55
2023/11/16 04:30:19;;;;;;;;;;;;;;;20.64;61.43;100827.09;7393250;19;1555;-62
2023/11/16 04:32:47;;;;;;;;;;;;;;;20.61;61.56;100836.28;7395523;19;1397;-53
2023/11/16 04:35:17;;;;;;;;;;;;;;;20.59;61.22;100832.91;7394501;19;1379;-53
2023/11/16 04:37:46;;;;;;;;;;;;;;;20.51;61.17;100845.31;7396488;19;1483;-54
2023/11/16 04:40:19;;;;;;;;;;;;;;;20.39;61.38;100860.72;7394303;19;1843;-53
2023/11/16 04:42:48;;;;;;;;;;;;;;;20.29;62.14;100859.91;7395025;19;1459;-54
2023/11/16 04:45:18;;;;;;;;;;;;;;;20.22;62.20;100860.47;7396192;19;1403;-54
2023/11/16 04:47:47;;;;;;;;;;;;;;;20.25;62.17;100862.88;7397551;19;1404;-52
2023/11/16 04:50:17;;;;;;;;;;;;;;;20.24;62.45;100855.78;7395682;19;1590;-53
2023/11/16 04:52:45;;;;;;;;;;;;;;;20.19;62.61;100868.81;7397156;19;1462;-54
2023/11/16 04:55:14;;;;;;;;;;;;;;;20.16;62.61;100857.50;7398068;19;1574;-54
2023/11/16 04:57:45;;;;;;;;;;;;;;;20.22;62.40;100868.53;7398436;19;1219;-54
2023/11/16 05:00:15;;;;;;;;;;;;;;;20.42;61.89;100863.16;7393611;19;1850;-54
2023/11/16 05:02:43;;;;;;;;;;;;;;;20.40;61.98;100881.25;7392150;19;1577;-54
2023/11/16 05:05:12;;;;;;;;;;;;;;;20.39;61.94;100884.91;7395248;19;1614;-54
2023/11/16 05:07:40;;;;;;;;;;;;;;;20.37;61.86;100886.88;7397187;19;1494;-54
2023/11/16 05:10:11;;;;;;;;;;;;;;;20.35;61.65;100888.88;7395219;19;1636;-54
2023/11/16 05:12:39;;;;;;;;;;;;;;;20.32;61.51;100906.13;7394970;19;1503;-55
2023/11/16 05:15:11;;;;;;;;;;;;;;;20.23;61.94;100901.59;7394991;19;1533;-53
2023/11/16 05:17:40;;;;;;;;;;;;;;;20.19;62.05;100902.84;7395337;19;1445;-52
2023/11/16 05:20:08;;;;;;;;;;;;;;;20.04;61.97;100891.69;7396389;19;1589;-54
2023/11/16 05:22:37;;;;;;;;;;;;;;;19.96;62.52;100900.44;7392838;19;1815;-53
2023/11/16 05:25:06;;;;;;;;;;;;;;;20.03;62.56;100906.06;7379847;19;1412;-52
2023/11/16 05:27:34;;;;;;;;;;;;;;;20.04;62.67;100919.38;7393347;19;1507;-54
2023/11/16 05:30:03;;;;;;;;;;;;;;;20.13;62.37;100925.72;7395861;19;1437;-55
2023/11/16 05:32:33;;;;;;;;;;;;;;;20.12;62.50;100933.94;7396185;19;1083;-54
2023/11/16 05:35:03;;;;;;;;;;;;;;;20.09;62.60;100932.38;7395172;19;1534;-54
2023/11/16 05:37:31;;;;;;;;;;;;;;;20.12;62.84;100926.75;7395230;19;1475;-53
2023/11/16 05:40:03;;;;;;;;;;;;;;;20.22;62.32;100937.50;7395407;19;1562;-55
2023/11/16 05:42:32;;;;;;;;;;;;;;;20.17;62.57;100935.19;7393125;19;1826;-54
2023/11/16 05:45:00;;;;;;;;;;;;;;;20.10;63.14;100931.41;7395275;19;1451;-53
2023/11/16 05:47:30;;;;;;;;;;;;;;;20.06;63.35;100925.44;7395376;19;1486;-53
2023/11/16 05:50:01;;;;;;;;;;;;;;;20.14;63.19;100927.44;7394883;19;1496;-53
2023/11/16 05:52:29;;;;;;;;;;;;;;;20.17;63.41;100945.94;7393963;19;1423;-54
2023/11/16 05:54:57;;;;;;;;;;;;;;;20.19;63.43;100944.00;7394518;19;1172;-52
2023/11/16 05:57:25;;;;;;;;;;;;;;;20.19;63.62;100953.88;7394199;19;1632;-52
2023/11/16 05:59:54;;;;;;;;;;;;;;;20.24;63.50;100971.25;7393948;19;1495;-51
2023/11/16 06:02:22;;;;;;;;;;;;;;;20.25;63.94;100981.03;7392338;19;1839;-52
2023/11/16 06:04:51;;;;;;;;;;;;;;;20.16;63.23;100979.16;7393752;19;1447;-52
2023/11/16 06:07:21;;;;;;;;;;;;;;;20.16;62.74;100986.38;7394201;19;1441;-51
2023/11/16 06:09:50;;;;;;;;;;;;;;;20.24;62.52;100989.22;7393584;19;1421;-51
2023/11/16 06:12:18;;;;;;;;;;;;;;;20.25;62.73;100991.78;7393293;19;1612;-52
2023/11/16 06:14:56;;;;;;;;;;;;;;;20.11;62.12;100996.66;7394429;19;1408;-51
2023/11/16 06:17:24;;;;;;;;;;;;;;;19.68;55.84;100994.09;7392541;19;1439;-51
2023/11/16 06:19:53;;;;;;;;;;;;;;;19.48;51.77;101001.19;7392953;19;1503;-63
2023/11/16 06:22:24;;;;;;;;;;;;;;;19.43;51.01;101021.34;7389710;19;1838;-53
2023/11/16 06:24:52;;;;;;;;;;;;;;;19.43;50.38;100998.06;7377378;19;1487;-51
2023/11/16 06:27:20;;;;;;;;;;;;;;;19.30;52.24;101016.19;7394427;19;1488;-52
2023/11/16 06:29:49;;;;;;;;;;;;;;;19.14;50.55;101007.75;7393246;19;1495;-52
2023/11/16 06:32:17;;;;;;;;;;;;;;;19.15;50.32;101012.13;7389468;19;1840;-52
2023/11/16 06:34:46;;;;;;;;;;;;;;;19.10;48.98;100992.91;7392070;19;1550;-51
2023/11/16 06:37:14;;;;;;;;;;;;;;;19.26;48.40;101036.22;7393193;19;1567;-51
2023/11/16 06:39:45;;;;;;;;;;;;;;;19.04;48.76;101038.03;7392070;19;1549;-52
2023/11/16 06:42:13;;;;;;;;;;;;;;;18.99;49.33;101012.59;7390979;19;1851;-51
2023/11/16 06:44:41;;;;;;;;;;;;;;;18.88;49.31;101022.38;7390511;19;1429;-51
2023/11/16 06:47:10;;;;;;;;;;;;;;;18.96;49.16;101027.09;7384140;19;1466;-55
2023/11/16 06:49:38;;;;;;;;;;;;;;;19.12;49.97;101017.75;7385881;19;2014;-51
2023/11/16 06:52:07;;;;;;;;;;;;;;;19.38;50.58;101029.78;7388224;19;1555;-52
2023/11/16 06:54:35;;;;;;;;;;;;;;;19.44;51.77;101040.00;7390504;19;1836;-52
2023/11/16 06:57:06;;;;;;;;;;;;;;;19.45;52.34;101033.63;7391586;19;1519;-51
2023/11/16 06:59:34;;;;;;;;;;;;;;;19.48;53.61;101028.00;7390389;19;1582;-52
2023/11/16 07:02:03;;;;;;;;;;;;;;;19.45;53.65;101039.00;7390658;19;1845;-52
2023/11/16 07:04:32;;;;;;;;;;;;;;;19.50;53.59;101016.28;7392119;19;1617;-53
2023/11/16 07:07:00;;;;;;;;;;;;;;;19.52;54.02;101042.03;7392006;19;1542;-54
2023/11/16 07:09:29;;;;;;;;;;;;;;;19.54;53.97;101023.97;7390692;19;1376;-51
2023/11/16 07:11:59;;;;;;;;;;;;;;;19.61;53.97;101029.63;7390874;19;1368;-52
2023/11/16 07:14:31;;;;;;;;;;;;;;;19.65;53.66;101041.78;7390643;19;1153;-52
2023/11/16 07:16:59;;;;;;;;;;;;;;;19.68;54.05;101057.66;7387268;19;1903;-51
2023/11/16 07:19:28;;;;;;;;;;;;;;;19.74;53.72;101057.13;7387625;19;1519;-52
2023/11/16 07:21:59;;;;;;;;;;;;;;;19.37;53.40;101003.94;7385890;19;1865;-52
2023/11/16 07:24:28;;;;;;;;;;;;;;;19.90;53.78;101045.06;7385026;19;2355;-53
2023/11/16 07:26:57;;;;;;;;;;;;;;;20.01;53.35;101042.28;7384020;19;1475;-51
2023/11/16 07:29:26;;;;;;;;;;;;;;;20.02;53.58;101058.25;7390083;19;1606;-52
2023/11/16 07:31:57;;;;;;;;;;;;;;;19.99;53.82;101050.47;7391151;19;1199;-52
2023/11/16 07:34:25;;;;;;;;;;;;;;;19.93;53.80;101055.53;7389367;19;1510;-52
2023/11/16 07:36:54;;;;;;;;;;;;;;;19.97;53.99;101065.84;7390920;19;1507;-52
2023/11/16 07:39:24;;;;;;;;;;;;;;;19.99;53.99;101063.88;7391359;19;1491;-53
2023/11/16 07:41:52;;;;;;;;;;;;;;;19.97;54.21;101073.06;7391710;19;1859;-52
2023/11/16 07:44:20;;;;;;;;;;;;;;;20.09;54.12;101074.66;7390233;19;1502;-52
2023/11/16 07:46:49;;;;;;;;;;;;;;;20.17;54.64;101061.41;7389192;19;1466;-52
2023/11/16 07:49:20;;;;;;;;;;;;;;;20.15;54.83;101082.16;7388209;19;1502;-51
2023/11/16 07:51:50;;;;;;;;;;;;;;;20.05;54.90;101075.91;7390682;19;1569;-52
2023/11/16 07:54:19;;;;;;;;;;;;;;;20.07;54.98;101079.31;7390119;19;1504;-52
2023/11/16 07:56:51;;;;;;;;;;;;;;;20.10;54.90;101095.16;7392261;19;1534;-51
2023/11/16 07:59:25;;;;;;;;;;;;;;;20.09;54.94;101098.81;7395610;19;1495;-52
2023/11/16 08:01:55;;;;;;;;;;;;;;;20.14;55.00;101101.97;7381693;19;2065;-52
2023/11/16 08:04:25;;;;;;;;;;;;;;;20.17;54.90;101095.47;7391870;19;1922;-53
2023/11/16 08:06:54;;;;;;;;;;;;;;;20.20;54.56;101087.16;7394011;19;1907;-51
2023/11/16 08:09:23;;;;;;;;;;;;;;;20.21;54.60;101095.09;7389810;19;1486;-53
2023/11/16 08:11:53;;;;;;;;;;;;;;;20.24;54.72;101091.28;7395915;19;1424;-54
2023/11/16 08:14:24;;;;;;;;;;;;;;;20.19;54.54;101085.44;7394513;19;1388;-52
2023/11/16 08:16:56;;;;;;;;;;;;;;;20.20;54.86;101084.47;7395390;19;1435;-51
2023/11/16 08:19:31;;;;;;;;;;;;;;;20.19;55.02;101089.00;7395867;19;1481;-51
2023/11/16 08:22:01;;;;;;;;;;;;;;;20.22;55.03;101099.44;7395570;19;1848;-51
2023/11/16 08:24:30;;;;;;;;;;;;;;;20.21;55.48;101097.78;7395572;19;1435;-52
2023/11/16 08:26:58;;;;;;;;;;;;;;;20.25;54.83;101096.50;7382254;19;1626;-50
2023/11/16 08:29:27;;;;;;;;;;;;;;;20.31;55.53;101113.03;7395784;19;1493;-51
2023/11/16 08:31:56;;;;;;;;;;;;;;;20.32;56.10;101098.66;7397824;19;1565;-51
2023/11/16 08:34:27;;;;;;;;;;;;;;;20.32;55.42;101099.50;7395978;19;1478;-51
2023/11/16 08:36:56;;;;;;;;;;;;;;;20.31;55.51;101086.19;7394996;19;1448;-51
2023/11/16 08:39:26;;;;;;;;;;;;;;;20.42;55.33;101096.84;7394050;19;1483;-51
2023/11/16 08:41:58;;;;;;;;;;;;;;;20.46;55.46;101092.88;7394331;19;1857;-51
2023/11/16 08:44:26;;;;;;;;;;;;;;;20.50;55.35;101075.50;7394393;19;1504;-51
2023/11/16 08:47:03;;;;;;;;;;;;;;;20.46;55.41;101091.03;7396315;19;1898;-51
2023/11/16 08:49:35;;;;;;;;;;;;;;;20.45;55.35;101099.22;7394046;19;1403;-51
2023/11/16 08:52:05;;;;;;;;;;;;;;;20.40;55.66;101074.63;7394586;19;1557;-51
2023/11/16 08:54:34;;;;;;;;;;;;;;;20.37;55.15;101069.53;7393766;19;1551;-51
2023/11/16 08:57:02;;;;;;;;;;;;;;;20.34;55.39;101081.41;7394252;19;1558;-51
2023/11/16 08:59:35;;;;;;;;;;;;;;;19.99;52.11;101076.47;7390874;19;1343;-50
2023/11/16 09:02:03;;;;;;;;;;;;;;;19.56;49.56;101062.22;7393230;19;1853;-50
2023/11/16 09:04:35;;;;;;;;;;;;;;;19.54;50.31;101060.66;7395087;19;1573;-52
2023/11/16 09:07:03;;;;;;;;;;;;;;;19.50;49.02;101076.16;7394139;19;1064;-50
2023/11/16 09:09:38;;;;;;;;;;;;;;;19.55;49.61;101063.19;7393152;19;1533;-50
2023/11/16 09:12:12;;;;;;;;;;;;;;;19.68;49.09;101063.84;7394322;19;1545;-51
2023/11/16 09:14:40;;;;;;;;;;;;;;;19.95;49.99;101058.91;7393778;19;1487;-51
2023/11/16 09:17:17;;;;;;;;;;;;;;;20.11;50.06;101048.53;7395197;19;1491;-51
2023/11/16 09:19:50;;;;;;;;;;;;;;;20.18;49.27;101048.84;7392456;19;1483;-51
2023/11/16 09:22:18;;;;;;;;;;;;;;;20.05;49.79;101049.06;7395001;19;1853;-50
2023/11/16 09:24:48;;;;;;;;;;;;;;;20.13;49.78;101068.03;7392474;19;1961;-51
2023/11/16 09:27:17;;;;;;;;;;;;;;;20.07;50.04;101039.03;7380960;19;1496;-52
2023/11/16 09:29:47;;;;;;;;;;;;;;;20.11;50.04;101032.41;7391402;19;1447;-51
2023/11/16 09:32:15;;;;;;;;;;;;;;;20.17;49.90;101047.13;7395707;19;1625;-50
2023/11/16 09:34:43;;;;;;;;;;;;;;;20.16;49.47;101067.78;7395046;19;1479;-51
2023/11/16 09:37:14;;;;;;;;;;;;;;;20.13;49.48;101035.81;7395320;19;1598;-51
2023/11/16 09:39:43;;;;;;;;;;;;;;;20.13;49.43;101045.72;7394573;19;1609;-51
2023/11/16 09:42:16;;;;;;;;;;;;;;;20.12;48.61;101047.56;7394426;19;1849;-51
2023/11/16 09:44:48;;;;;;;;;;;;;;;20.06;48.58;101035.53;7395213;19;1546;-50
2023/11/16 09:47:25;;;;;;;;;;;;;;;20.21;48.54;101044.06;7395458;19;1546;-51
2023/11/16 09:49:56;;;;;;;;;;;;;;;20.29;48.08;101045.19;7396320;19;1420;-51
2023/11/16 09:52:28;;;;;;;;;;;;;;;20.33;47.78;101038.56;7395698;19;1482;-50
2023/11/16 09:55:00;;;;;;;;;;;;;;;20.29;47.86;101039.81;7395258;19;1509;-51
2023/11/16 09:57:31;;;;;;;;;;;;;;;20.27;47.29;101031.91;7394258;19;1488;-51
2023/11/16 10:00:13;;;;;;;;;;;;;;;20.31;47.55;101027.09;7394135;19;1569;-51
2023/11/16 10:02:43;;;;;;;;;;;;;;;20.35;47.17;101015.97;7392500;19;1847;-51
2023/11/16 10:05:22;;;;;;;;;;;;;;;20.33;46.94;101023.28;7393211;19;1534;-51
2023/11/16 10:07:56;;;;;;;;;;;;;;;20.34;47.11;101029.53;7393032;19;1510;-51
2023/11/16 10:10:29;;;;;;;;;;;;;;;20.16;46.90;101024.81;7394276;19;1451;-51
2023/11/16 10:12:58;;;;;;;;;;;;;;;20.11;46.83;101015.47;7391506;19;1642;-51
2023/11/16 10:15:30;;;;;;;;;;;;;;;20.19;46.85;101021.88;7392248;19;1557;-51
2023/11/16 10:18:01;;;;;;;;;;;;;;;20.04;46.52;101023.22;7394147;19;1512;-51
2023/11/16 10:20:31;;;;;;;;;;;;;;;19.96;46.86;101023.91;7392263;19;1538;-51
2023/11/16 10:23:03;;;;;;;;;;;;;;;19.95;46.93;101007.94;7393775;19;1854;-51
2023/11/16 10:25:31;;;;;;;;;;;;;;;19.97;47.20;101014.00;7379459;19;1506;-52
2023/11/16 10:28:00;;;;;;;;;;;;;;;19.95;47.12;101010.59;7393218;19;1313;-51
2023/11/16 10:30:28;;;;;;;;;;;;;;;19.89;46.97;101008.47;7394061;19;1522;-51
2023/11/16 10:32:59;;;;;;;;;;;;;;;19.89;46.47;101011.16;7394634;19;1403;-51
2023/11/16 10:35:29;;;;;;;;;;;;;;;19.96;47.17;101023.06;7388472;19;1594;-57
2023/11/16 10:37:59;;;;;;;;;;;;;;;20.13;47.32;100994.69;7389751;19;1411;-54
2023/11/16 10:40:30;;;;;;;;;;;;;;;20.20;47.50;101003.91;7391858;19;1527;-56
2023/11/16 10:42:59;;;;;;;;;;;;;;;20.25;48.06;100991.78;7389719;19;1849;-56
2023/11/16 10:45:27;;;;;;;;;;;;;;;20.36;47.74;101003.38;7391295;19;1495;-56
2023/11/16 10:47:56;;;;;;;;;;;;;;;20.40;47.87;100999.44;7393224;19;1573;-54
2023/11/16 10:50:25;;;;;;;;;;;;;;;20.42;48.20;101018.94;7390709;19;1432;-51
2023/11/16 10:52:53;;;;;;;;;;;;;;;20.38;48.91;101004.09;7385928;19;1344;-51
2023/11/16 10:55:24;;;;;;;;;;;;;;;20.35;49.26;101013.28;7389960;19;1498;-51
2023/11/16 10:58:00;;;;;;;;;;;;;;;20.23;49.77;101020.59;7391567;19;1384;-51
2023/11/16 11:00:29;;;;;;;;;;;;;;;20.17;49.34;101025.66;7391156;19;1274;-53
2023/11/16 11:02:59;;;;;;;;;;;;;;;19.98;49.24;101018.41;7390556;19;1855;-52
2023/11/16 11:05:31;;;;;;;;;;;;;;;19.90;48.45;101020.91;7385233;19;1614;-51
2023/11/16 11:08:00;;;;;;;;;;;;;;;19.88;48.51;101018.38;7388332;19;1664;-62
2023/11/16 11:10:29;;;;;;;;;;;;;;;19.84;48.30;101015.09;7389591;19;1495;-52
2023/11/16 11:13:03;;;;;;;;;;;;;;;19.78;47.86;101021.00;7389637;19;1468;-65
2023/11/16 11:15:34;;;;;;;;;;;;;;;19.78;47.39;101001.38;7387984;19;1789;-51
2023/11/16 11:18:04;;;;;;;;;;;;;;;19.76;47.25;101006.88;7387739;19;1526;-51
2023/11/16 11:20:36;;;;;;;;;;;;;;;19.74;46.97;101006.16;7388514;19;1577;-53
2023/11/16 11:23:09;;;;;;;;;;;;;;;19.72;46.24;100999.22;7387299;19;1870;-52
2023/11/16 11:25:40;;;;;;;;;;;;;;;19.69;46.64;101008.34;7377376;19;1506;-54
2023/11/16 11:28:11;;;;;;;;;;;;;;;19.70;46.54;101001.16;7392610;19;1507;-52
2023/11/16 11:30:49;;;;;;;;;;;;;;;19.68;46.12;101002.16;7393919;19;1538;-53
2023/11/16 11:33:22;;;;;;;;;;;;;;;19.67;46.68;101004.94;7401628;19;996;-51
2023/11/16 11:35:52;;;;;;;;;;;;;;;19.70;45.76;100996.66;7398819;19;1486;-51
2023/11/16 11:38:26;;;;;;;;;;;;;;;19.72;45.73;100997.41;7399922;19;1586;-52
2023/11/16 11:40:58;;;;;;;;;;;;;;;19.67;46.24;101004.94;7399646;19;1546;-52
2023/11/16 11:43:29;;;;;;;;;;;;;;;19.68;46.02;100999.47;7398236;19;1835;-52
2023/11/16 11:45:58;;;;;;;;;;;;;;;19.69;45.36;101000.31;7398267;19;1638;-52
2023/11/16 11:48:26;;;;;;;;;;;;;;;19.69;45.81;101000.31;7399414;19;1566;-53
2023/11/16 11:50:57;;;;;;;;;;;;;;;19.70;45.35;100999.34;7399442;19;1488;-52
2023/11/16 11:53:27;;;;;;;;;;;;;;;19.69;46.34;100994.94;7399234;19;1669;-51
2023/11/16 11:55:57;;;;;;;;;;;;;;;19.70;46.37;101001.16;7398834;19;1371;-53
2023/11/16 11:58:25;;;;;;;;;;;;;;;19.70;45.50;101001.16;7398823;19;1495;-52
2023/11/16 12:00:57;;;;;;;;;;;;;;;19.71;46.07;100998.38;7398889;19;1628;-52
2023/11/16 12:03:27;;;;;;;;;;;;;;;19.69;45.97;100984.19;7399445;19;1845;-52
2023/11/16 12:05:58;;;;;;;;;;;;;;;19.67;46.13;100986.16;7397269;19;1554;-52
2023/11/16 12:08:26;;;;;;;;;;;;;;;19.70;46.47;100990.44;7398274;19;1596;-54
2023/11/16 12:10:55;;;;;;;;;;;;;;;19.61;45.67;100990.22;7397254;19;1420;-52
2023/11/16 12:13:24;;;;;;;;;;;;;;;19.60;46.72;100990.41;7396427;19;1428;-52
2023/11/16 12:15:53;;;;;;;;;;;;;;;19.58;45.88;101005.78;7397862;19;1380;-53
2023/11/16 12:18:24;;;;;;;;;;;;;;;19.56;46.19;100994.31;7399502;19;1063;-53
2023/11/16 12:20:53;;;;;;;;;;;;;;;19.53;45.70;100994.56;7398134;19;1828;-52
2023/11/16 12:23:22;;;;;;;;;;;;;;;19.55;45.90;101011.38;7394623;19;1850;-51
2023/11/16 12:25:50;;;;;;;;;;;;;;;19.66;45.23;101011.31;7391941;19;1514;-52
2023/11/16 12:28:18;;;;;;;;;;;;;;;19.73;46.01;101007.13;7392535;19;1581;-52
2023/11/16 12:30:49;;;;;;;;;;;;;;;19.81;45.47;100996.56;7396690;19;1391;-52
2023/11/16 12:33:18;;;;;;;;;;;;;;;19.73;46.43;101012.50;7399174;19;1330;-51
2023/11/16 12:35:52;;;;;;;;;;;;;;;19.67;46.05;100996.91;7397376;19;1525;-51
2023/11/16 12:38:21;;;;;;;;;;;;;;;19.57;45.90;101012.09;7396811;19;1424;-53
2023/11/16 12:40:50;;;;;;;;;;;;;;;19.59;46.03;101012.81;7396841;19;1542;-52
2023/11/16 12:43:20;;;;;;;;;;;;;;;19.59;45.63;101007.47;7394765;19;1863;-52
2023/11/16 12:45:49;;;;;;;;;;;;;;;19.70;45.69;101012.75;7396763;19;1593;-52
2023/11/16 12:48:17;;;;;;;;;;;;;;;19.82;46.05;101018.91;7396427;19;1626;-52
2023/11/16 12:50:46;;;;;;;;;;;;;;;19.92;46.53;101018.94;7396493;19;1558;-54
2023/11/16 12:53:17;;;;;;;;;;;;;;;19.91;46.94;101017.22;7394765;19;1522;-53
2023/11/16 12:55:45;;;;;;;;;;;;;;;19.93;46.74;101032.22;7396574;19;1477;-53
2023/11/16 12:58:13;;;;;;;;;;;;;;;19.99;45.87;101018.25;7395902;19;1232;-53
2023/11/16 13:00:43;;;;;;;;;;;;;;;20.05;46.09;101041.88;7397054;19;1800;-53